Time;durP1;ratioP1;P1;durP2;ratioP2;P2;SDS_P1;SDS_P2;PMS_P1;PMS_P2;Temp;Humidity;BMP_temperature;BMP_pressure;BME280_temperature;BME280_humidity;BME280_pressure;Samples;Min_cycle;Max_cycle;Signal;HPM_P1;HPM_P2
2023/10/02 00:01:17;;;;;;;6.07;4.63;;;;;;;;;;5113723;28;20958;-61
2023/10/02 00:03:48;;;;;;;7.07;5.33;;;;;;;;;;5113758;28;20506;-61
2023/10/02 00:06:16;;;;;;;5.00;4.60;;;;;;;;;;5113701;28;20448;-61
2023/10/02 00:08:48;;;;;;;6.23;5.07;;;;;;;;;;5113531;28;20441;-61
2023/10/02 00:14:22;;;;;;;5.17;4.57;;;;;;;;;;5109810;28;20445;-61
2023/10/02 00:17:07;;;;;;;4.43;4.03;;;;;;;;;;5113616;28;20437;-61
2023/10/02 00:19:36;;;;;;;5.20;4.70;;;;;;;;;;5113691;28;20465;-60
2023/10/02 00:22:07;;;;;;;6.50;5.50;;;;;;;;;;5113630;28;20442;-60
2023/10/02 00:24:36;;;;;;;5.30;4.63;;;;;;;;;;5113330;28;20437;-60
2023/10/02 00:27:05;;;;;;;5.03;4.53;;;;;;;;;;5113457;28;20446;-60
2023/10/02 00:29:32;;;;;;;6.27;5.00;;;;;;;;;;5113175;28;20470;-60
2023/10/02 00:31:59;;;;;;;6.63;5.20;;;;;;;;;;5113505;28;20871;-61
2023/10/02 00:34:33;;;;;;;5.37;4.67;;;;;;;;;;5113520;28;20442;-60
2023/10/02 00:37:02;;;;;;;6.03;5.07;;;;;;;;;;5113501;28;20532;-60
2023/10/02 00:39:32;;;;;;;6.00;4.87;;;;;;;;;;5113398;28;20460;-60
2023/10/02 00:42:24;;;;;;;4.90;4.43;;;;;;;;;;5113547;28;20873;-61
2023/10/02 00:44:52;;;;;;;8.67;5.17;;;;;;;;;;5113423;28;20499;-61
2023/10/02 00:47:35;;;;;;;4.93;4.43;;;;;;;;;;5113341;28;20446;-61
2023/10/02 00:50:08;;;;;;;6.07;5.00;;;;;;;;;;5113275;28;20495;-61
2023/10/02 00:52:36;;;;;;;4.93;4.43;;;;;;;;;;5113077;28;20480;-61
2023/10/02 00:55:06;;;;;;;4.83;4.50;;;;;;;;;;5113303;28;20466;-61
2023/10/02 00:57:35;;;;;;;4.90;4.40;;;;;;;;;;5113290;28;20491;-61
2023/10/02 01:00:06;;;;;;;4.83;4.20;;;;;;;;;;5113240;28;20441;-61
2023/10/02 01:02:34;;;;;;;7.50;5.00;;;;;;;;;;5113191;28;20494;-61
2023/10/02 01:05:03;;;;;;;4.47;4.10;;;;;;;;;;5113018;28;20495;-61
2023/10/02 01:07:33;;;;;;;5.13;4.20;;;;;;;;;;5113233;28;20438;-61
2023/10/02 01:10:11;;;;;;;4.73;4.23;;;;;;;;;;5113397;28;20516;-61
2023/10/02 01:12:44;;;;;;;9.93;5.53;;;;;;;;;;5113076;28;20897;-61
2023/10/02 01:15:12;;;;;;;6.33;4.60;;;;;;;;;;5112965;28;20460;-61
2023/10/02 01:17:40;;;;;;;5.07;4.57;;;;;;;;;;5112900;28;20462;-60
2023/10/02 01:20:12;;;;;;;7.20;4.73;;;;;;;;;;5113065;28;20537;-61
2023/10/02 01:22:42;;;;;;;5.50;5.00;;;;;;;;;;5113065;28;20532;-61
2023/10/02 01:25:14;;;;;;;8.30;5.33;;;;;;;;;;5112864;28;20975;-61
2023/10/02 01:27:41;;;;;;;5.83;5.27;;;;;;;;;;5112846;28;20445;-61
2023/10/02 01:30:18;;;;;;;5.47;4.33;;;;;;;;;;5112742;28;20528;-61
2023/10/02 01:33:14;;;;;;;7.17;4.43;;;;;;;;;;5112859;28;20473;-61
2023/10/02 01:35:46;;;;;;;7.00;4.83;;;;;;;;;;5112818;28;20456;-61
2023/10/02 01:38:18;;;;;;;6.80;5.17;;;;;;;;;;5116479;28;20514;-61
2023/10/02 01:40:48;;;;;;;7.03;4.80;;;;;;;;;;5116633;28;20985;-61
2023/10/02 01:43:16;;;;;;;5.10;4.60;;;;;;;;;;5116553;28;20544;-61
2023/10/02 01:45:43;;;;;;;5.00;4.60;;;;;;;;;;5116329;28;20932;-61
2023/10/02 01:48:12;;;;;;;6.67;4.83;;;;;;;;;;5116468;27;20489;-61
2023/10/02 01:50:39;;;;;;;4.83;4.30;;;;;;;;;;5116208;28;20944;-61
2023/10/02 01:53:06;;;;;;;4.90;4.40;;;;;;;;;;5116111;28;20512;-61
2023/10/02 01:55:35;;;;;;;6.10;5.53;;;;;;;;;;5116349;28;20449;-61
2023/10/02 01:58:17;;;;;;;4.83;4.20;;;;;;;;;;5116192;28;20489;-61
2023/10/02 02:00:45;;;;;;;5.13;4.73;;;;;;;;;;5116106;28;20441;-61
2023/10/02 02:03:15;;;;;;;4.80;4.40;;;;;;;;;;5115984;28;20846;-61
2023/10/02 02:05:46;;;;;;;5.30;4.80;;;;;;;;;;5116223;28;20438;-61
2023/10/02 02:08:22;;;;;;;5.40;4.90;;;;;;;;;;5116082;28;20441;-61
2023/10/02 02:10:50;;;;;;;5.83;5.23;;;;;;;;;;5116051;28;20437;-61
2023/10/02 02:13:19;;;;;;;5.60;4.63;;;;;;;;;;5115753;28;20813;-61
2023/10/02 02:15:47;;;;;;;5.67;5.17;;;;;;;;;;5115728;28;20452;-61
2023/10/02 02:18:15;;;;;;;8.10;4.77;;;;;;;;;;5115945;28;20525;-61
2023/10/02 02:20:57;;;;;;;5.00;4.30;;;;;;;;;;5115794;28;20435;-61
2023/10/02 02:23:24;;;;;;;6.50;4.70;;;;;;;;;;5115751;28;20446;-61
2023/10/02 02:25:51;;;;;;;5.50;4.30;;;;;;;;;;5115646;28;20440;-60
2023/10/02 02:28:19;;;;;;;5.67;5.17;;;;;;;;;;5115297;28;20522;-61
2023/10/02 02:30:47;;;;;;;4.70;4.27;;;;;;;;;;5115839;28;20532;-61
2023/10/02 02:33:15;;;;;;;4.50;4.10;;;;;;;;;;5115463;28;20638;-61
2023/10/02 02:35:44;;;;;;;5.17;4.77;;;;;;;;;;5115472;28;20536;-61
2023/10/02 02:38:14;;;;;;;5.73;5.23;;;;;;;;;;5115317;28;20912;-61
2023/10/02 02:40:41;;;;;;;4.80;4.40;;;;;;;;;;5115273;28;20453;-61
2023/10/02 02:43:19;;;;;;;5.73;4.60;;;;;;;;;;5115517;28;20452;-61
2023/10/02 02:45:47;;;;;;;6.30;4.97;;;;;;;;;;5115371;28;20484;-61
2023/10/02 02:48:15;;;;;;;7.13;5.47;;;;;;;;;;5115184;28;20442;-61
2023/10/02 02:50:43;;;;;;;6.27;5.03;;;;;;;;;;5115122;28;20470;-60
2023/10/02 02:53:23;;;;;;;6.77;5.50;;;;;;;;;;5114903;28;20523;-61
2023/10/02 02:56:10;;;;;;;8.70;4.77;;;;;;;;;;5115031;28;21001;-61
2023/10/02 02:58:38;;;;;;;5.50;4.87;;;;;;;;;;5115075;28;20449;-61
2023/10/02 03:01:06;;;;;;;6.30;5.03;;;;;;;;;;5114934;28;20536;-61
2023/10/02 03:03:34;;;;;;;4.77;4.37;;;;;;;;;;5114840;28;20887;-61
2023/10/02 03:06:04;;;;;;;5.77;4.57;;;;;;;;;;5114686;28;20529;-61
2023/10/02 03:08:37;;;;;;;6.00;5.50;;;;;;;;;;5114999;28;20445;-61
2023/10/02 03:11:06;;;;;;;5.87;4.70;;;;;;;;;;5114801;28;20524;-61
2023/10/02 03:13:35;;;;;;;6.10;5.50;;;;;;;;;;5114524;28;20520;-61
2023/10/02 03:16:08;;;;;;;5.77;5.13;;;;;;;;;;5114686;28;20461;-61
2023/10/02 03:18:37;;;;;;;7.57;5.17;;;;;;;;;;5114779;28;20433;-61
2023/10/02 03:21:14;;;;;;;5.07;4.57;;;;;;;;;;5114591;28;20510;-61
2023/10/02 03:23:42;;;;;;;5.40;4.83;;;;;;;;;;5114537;28;20445;-61
2023/10/02 03:26:21;;;;;;;4.43;4.03;;;;;;;;;;5114390;28;20533;-61
2023/10/02 03:28:48;;;;;;;4.83;4.20;;;;;;;;;;5114154;28;20979;-60
2023/10/02 03:31:34;;;;;;;5.07;4.57;;;;;;;;;;5114518;28;20525;-61
2023/10/02 03:34:24;;;;;;;5.20;4.80;;;;;;;;;;5114386;28;20482;-61
2023/10/02 03:36:50;;;;;;;6.33;4.60;;;;;;;;;;5114067;28;20928;-61
2023/10/02 03:39:51;;;;;;;5.93;5.20;;;;;;;;;;5114167;28;20481;-61
2023/10/02 03:42:12;;;;;;;6.13;5.47;;;;;;;;;;5114084;28;20457;-61
2023/10/02 03:44:39;;;;;;;5.07;4.40;;;;;;;;;;5114153;28;20503;-60
2023/10/02 03:47:06;;;;;;;7.00;5.30;;;;;;;;;;5114040;28;20437;-60
2023/10/02 03:49:35;;;;;;;5.63;4.97;;;;;;;;;;5113923;28;20494;-61
2023/10/02 03:52:02;;;;;;;6.40;5.70;;;;;;;;;;5114151;28;20528;-61
2023/10/02 03:54:29;;;;;;;5.83;5.23;;;;;;;;;;5114021;28;20941;-61
2023/10/02 03:56:56;;;;;;;5.47;4.90;;;;;;;;;;5113981;28;20442;-60
2023/10/02 03:59:26;;;;;;;5.63;4.90;;;;;;;;;;5113499;28;20449;-61
2023/10/02 04:01:53;;;;;;;5.40;4.90;;;;;;;;;;5113751;28;20512;-61
2023/10/02 04:04:21;;;;;;;6.40;4.63;;;;;;;;;;5113651;28;20561;-61
2023/10/02 04:06:53;;;;;;;6.50;4.90;;;;;;;;;;5113812;28;20461;-61
2023/10/02 04:09:23;;;;;;;8.40;5.30;;;;;;;;;;5113748;28;20920;-61
2023/10/02 04:11:50;;;;;;;6.73;5.30;;;;;;;;;;5113701;28;20976;-61
2023/10/02 04:14:31;;;;;;;6.90;5.23;;;;;;;;;;5113489;28;20473;-60
2023/10/02 04:17:08;;;;;;;7.40;6.10;;;;;;;;;;5113988;28;20477;-60
2023/10/02 04:19:35;;;;;;;8.70;5.50;;;;;;;;;;5113691;28;20484;-61
2023/10/02 04:22:07;;;;;;;6.40;5.10;;;;;;;;;;5113640;28;20441;-60
2023/10/02 04:24:50;;;;;;;11.30;5.57;;;;;;;;;;5113460;28;20457;-61
2023/10/02 04:27:18;;;;;;;7.40;5.63;;;;;;;;;;5113379;28;20441;-61
2023/10/02 04:30:09;;;;;;;7.30;5.60;;;;;;;;;;5113236;28;20568;-61
2023/10/02 04:32:33;;;;;;;8.10;6.10;;;;;;;;;;5113192;28;20964;-61
2023/10/02 04:35:02;;;;;;;8.30;6.07;;;;;;;;;;5113359;28;20457;-60
2023/10/02 04:37:31;;;;;;;6.90;5.90;;;;;;;;;;5113221;28;20448;-61
2023/10/02 04:40:15;;;;;;;8.03;6.20;;;;;;;;;;5113586;28;20446;-61
2023/10/02 04:43:14;;;;;;;6.23;5.60;;;;;;;;;;5113747;28;20442;-61
2023/10/02 04:45:44;;;;;;;7.40;6.33;;;;;;;;;;5113206;28;20499;-61
2023/10/02 04:48:10;;;;;;;12.93;6.03;;;;;;;;;;5113516;28;20438;-61
2023/10/02 04:50:45;;;;;;;7.47;6.03;;;;;;;;;;5113320;28;20485;-61
2023/10/02 04:53:23;;;;;;;6.43;5.40;;;;;;;;;;5113227;28;20500;-60
2023/10/02 04:56:06;;;;;;;8.87;6.10;;;;;;;;;;5113190;28;20511;-61
2023/10/02 04:58:36;;;;;;;8.57;6.77;;;;;;;;;;5113093;28;20556;-61
2023/10/02 05:01:25;;;;;;;9.07;6.00;;;;;;;;;;5113173;28;20449;-61
2023/10/02 05:03:53;;;;;;;8.60;5.30;;;;;;;;;;5113161;28;20437;-60
2023/10/02 05:09:25;;;;;;;8.90;6.50;;;;;;;;;;5112829;28;20438;-61
2023/10/02 05:11:52;;;;;;;9.27;5.40;;;;;;;;;;5115018;28;20473;-61
2023/10/02 05:14:26;;;;;;;6.93;6.20;;;;;;;;;;5117336;28;20477;-60
2023/10/02 05:16:52;;;;;;;8.13;6.50;;;;;;;;;;5116939;28;20442;-61
2023/10/02 05:19:46;;;;;;;5.57;5.07;;;;;;;;;;5116760;28;20956;-61
2023/10/02 05:22:07;;;;;;;9.10;5.90;;;;;;;;;;5116671;28;20548;-61
2023/10/02 05:24:35;;;;;;;6.70;6.00;;;;;;;;;;5116894;28;20460;-60
2023/10/02 05:27:04;;;;;;;7.57;6.33;;;;;;;;;;5116576;28;20782;-61
2023/10/02 05:29:36;;;;;;;8.90;6.43;;;;;;;;;;5116298;28;20459;-60
2023/10/02 05:32:16;;;;;;;10.20;6.30;;;;;;;;;;5116853;28;20509;-61
2023/10/02 05:34:58;;;;;;;9.50;6.57;;;;;;;;;;5116754;28;20489;-61
2023/10/02 05:37:31;;;;;;;8.50;6.33;;;;;;;;;;5116564;28;20441;-60
2023/10/02 05:40:37;;;;;;;8.80;5.30;;;;;;;;;;5116465;28;20441;-61
2023/10/02 05:42:53;;;;;;;9.27;6.33;;;;;;;;;;5116317;28;20445;-61
2023/10/02 05:45:37;;;;;;;10.13;6.00;;;;;;;;;;5116271;28;20970;-61
2023/10/02 05:48:07;;;;;;;8.10;5.70;;;;;;;;;;5116357;28;20522;-61
2023/10/02 05:50:34;;;;;;;6.87;6.07;;;;;;;;;;5116062;28;20446;-61
2023/10/02 05:53:04;;;;;;;14.57;6.10;;;;;;;;;;5116369;28;20529;-61
2023/10/02 05:55:56;;;;;;;8.90;5.90;;;;;;;;;;5116286;28;20488;-61
2023/10/02 05:58:27;;;;;;;9.17;7.17;;;;;;;;;;5116029;28;20856;-61
2023/10/02 06:00:54;;;;;;;8.00;5.67;;;;;;;;;;5116050;28;20445;-60
2023/10/02 06:03:22;;;;;;;11.30;7.17;;;;;;;;;;5116200;28;20881;-61
2023/10/02 06:06:10;;;;;;;9.20;6.20;;;;;;;;;;5116084;28;20861;-61
2023/10/02 06:08:40;;;;;;;8.33;5.70;;;;;;;;;;5115781;28;20441;-60
2023/10/02 06:11:26;;;;;;;9.33;5.90;;;;;;;;;;5116097;28;20446;-61
2023/10/02 06:13:55;;;;;;;9.80;5.90;;;;;;;;;;5115989;28;20548;-61
2023/10/02 06:16:24;;;;;;;11.60;6.50;;;;;;;;;;5115973;28;20887;-61
2023/10/02 06:19:00;;;;;;;11.00;7.10;;;;;;;;;;5115771;28;20442;-61
2023/10/02 06:21:28;;;;;;;9.43;6.77;;;;;;;;;;5115660;28;20441;-61
2023/10/02 06:23:56;;;;;;;7.67;5.70;;;;;;;;;;5115281;28;20532;-61
2023/10/02 06:26:29;;;;;;;12.40;8.00;;;;;;;;;;5115758;28;20438;-61
2023/10/02 06:31:41;;;;;;;9.73;6.30;;;;;;;;;;5115322;28;20441;-60
2023/10/02 06:34:08;;;;;;;10.80;6.93;;;;;;;;;;5115281;28;20477;-61
2023/10/02 06:36:45;;;;;;;9.97;7.00;;;;;;;;;;5115640;28;20954;-62
2023/10/02 06:39:12;;;;;;;12.43;7.00;;;;;;;;;;5115433;28;20442;-61
2023/10/02 06:41:40;;;;;;;11.97;7.50;;;;;;;;;;5115390;28;20532;-61
2023/10/02 06:44:15;;;;;;;11.87;7.13;;;;;;;;;;5115367;28;20536;-61
2023/10/02 06:46:52;;;;;;;8.97;6.60;;;;;;;;;;5115213;28;20804;-61
2023/10/02 06:49:20;;;;;;;11.63;7.23;;;;;;;;;;5115278;28;20503;-61
2023/10/02 06:51:49;;;;;;;11.63;7.40;;;;;;;;;;5115205;28;20490;-61
2023/10/02 06:54:16;;;;;;;12.00;7.90;;;;;;;;;;5115039;28;20509;-61
2023/10/02 06:56:44;;;;;;;9.47;7.27;;;;;;;;;;5114990;28;20441;-61
2023/10/02 06:59:12;;;;;;;9.60;7.03;;;;;;;;;;5114848;28;20444;-61
2023/10/02 07:02:01;;;;;;;11.40;7.77;;;;;;;;;;5114984;28;20464;-61
2023/10/02 07:04:29;;;;;;;9.23;6.90;;;;;;;;;;5114664;28;20474;-61
2023/10/02 07:07:02;;;;;;;9.93;7.47;;;;;;;;;;5114795;28;20778;-61
2023/10/02 07:09:29;;;;;;;11.37;7.47;;;;;;;;;;5114664;28;20449;-61
2023/10/02 07:12:08;;;;;;;11.20;7.63;;;;;;;;;;5114868;28;20473;-61
2023/10/02 07:14:36;;;;;;;10.17;6.50;;;;;;;;;;5114699;28;20485;-61
2023/10/02 07:17:11;;;;;;;11.17;7.50;;;;;;;;;;5114680;28;20446;-62
2023/10/02 07:19:39;;;;;;;12.37;7.77;;;;;;;;;;5114645;28;20481;-61
2023/10/02 07:22:11;;;;;;;11.87;7.43;;;;;;;;;;5114536;28;20879;-61
2023/10/02 07:24:40;;;;;;;11.00;7.07;;;;;;;;;;5114580;28;20498;-61
2023/10/02 07:27:22;;;;;;;12.07;7.50;;;;;;;;;;5114581;28;20789;-61
2023/10/02 07:29:51;;;;;;;10.40;7.17;;;;;;;;;;5114129;28;20469;-61
2023/10/02 07:32:18;;;;;;;13.10;7.67;;;;;;;;;;5114254;28;20789;-61
2023/10/02 07:34:46;;;;;;;11.80;8.40;;;;;;;;;;5113455;28;20627;-61
2023/10/02 07:37:15;;;;;;;9.07;6.70;;;;;;;;;;5114155;28;20452;-61
2023/10/02 07:39:42;;;;;;;8.60;6.00;;;;;;;;;;5114317;28;20450;-61
2023/10/02 07:42:11;;;;;;;11.20;7.00;;;;;;;;;;5114098;28;20473;-61
2023/10/02 07:44:38;;;;;;;11.30;8.13;;;;;;;;;;5114091;28;20441;-61
2023/10/02 07:47:10;;;;;;;10.80;7.17;;;;;;;;;;5113891;28;20442;-61
2023/10/02 07:49:37;;;;;;;9.87;7.20;;;;;;;;;;5114197;28;20433;-61
2023/10/02 07:52:06;;;;;;;11.10;7.30;;;;;;;;;;5114000;28;20529;-61
2023/10/02 07:54:44;;;;;;;11.37;7.37;;;;;;;;;;5113588;28;20997;-61
2023/10/02 07:57:13;;;;;;;9.97;7.47;;;;;;;;;;5113826;28;20498;-61
2023/10/02 07:59:43;;;;;;;9.30;6.37;;;;;;;;;;5113831;28;20445;-61
2023/10/02 08:02:23;;;;;;;12.27;7.30;;;;;;;;;;5113742;28;20925;-61
2023/10/02 08:04:51;;;;;;;11.37;7.17;;;;;;;;;;5113827;28;20441;-61
2023/10/02 08:07:18;;;;;;;8.90;7.03;;;;;;;;;;5113707;28;20963;-61
2023/10/02 08:09:48;;;;;;;11.17;7.53;;;;;;;;;;5113667;28;20449;-60
2023/10/02 08:12:30;;;;;;;11.73;7.43;;;;;;;;;;5113539;28;20444;-60
2023/10/02 08:14:59;;;;;;;9.97;6.90;;;;;;;;;;5113719;28;20571;-60
2023/10/02 08:17:59;;;;;;;9.63;7.03;;;;;;;;;;5113631;28;20801;-60
2023/10/02 08:20:20;;;;;;;10.90;8.00;;;;;;;;;;5113263;28;20437;-60
2023/10/02 08:22:51;;;;;;;13.63;6.93;;;;;;;;;;5113621;28;20442;-60
2023/10/02 08:25:23;;;;;;;9.47;6.47;;;;;;;;;;5113488;28;20453;-60
2023/10/02 08:27:57;;;;;;;10.13;7.60;;;;;;;;;;5113201;28;20877;-60
2023/10/02 08:30:28;;;;;;;10.33;6.90;;;;;;;;;;5113381;28;20438;-60
2023/10/02 08:33:05;;;;;;;13.50;7.20;;;;;;;;;;5113326;28;20487;-60
2023/10/02 08:35:32;;;;;;;13.20;7.40;;;;;;;;;;5113351;28;20533;-60
2023/10/02 08:37:59;;;;;;;9.57;6.90;;;;;;;;;;5113343;28;20525;-60
2023/10/02 08:40:26;;;;;;;11.07;7.33;;;;;;;;;;5113268;28;20441;-60
2023/10/02 08:42:57;;;;;;;8.83;6.37;;;;;;;;;;5113278;28;20442;-60
2023/10/02 08:45:26;;;;;;;11.30;6.67;;;;;;;;;;5114305;28;20445;-60
2023/10/02 08:47:54;;;;;;;11.10;6.50;;;;;;;;;;5117567;28;20442;-61
2023/10/02 08:50:21;;;;;;;12.97;7.17;;;;;;;;;;5117547;28;20445;-60
2023/10/02 08:52:51;;;;;;;10.60;7.60;;;;;;;;;;5117407;28;21001;-60
2023/10/02 08:55:33;;;;;;;8.90;6.90;;;;;;;;;;5117255;28;20481;-61
2023/10/02 08:58:15;;;;;;;10.43;7.07;;;;;;;;;;5117237;28;20444;-61
2023/10/02 09:01:01;;;;;;;10.30;6.60;;;;;;;;;;5117390;28;20441;-61
2023/10/02 09:03:28;;;;;;;11.17;7.30;;;;;;;;;;5117121;28;20540;-61
2023/10/02 09:06:24;;;;;;;10.60;8.00;;;;;;;;;;5117075;28;20533;-61
2023/10/02 09:09:13;;;;;;;10.67;6.83;;;;;;;;;;5116866;28;20936;-61
2023/10/02 09:11:34;;;;;;;10.00;6.83;;;;;;;;;;5116981;28;21005;-61
2023/10/02 09:14:15;;;;;;;9.57;7.00;;;;;;;;;;5116942;28;20453;-61
2023/10/02 09:16:45;;;;;;;10.57;7.20;;;;;;;;;;5116870;28;20441;-61
2023/10/02 09:21:53;;;;;;;7.93;6.20;;;;;;;;;;5116654;28;20437;-61
2023/10/02 09:24:23;;;;;;;8.70;6.80;;;;;;;;;;5116716;28;20441;-61
2023/10/02 09:26:50;;;;;;;8.60;6.57;;;;;;;;;;5116754;28;20441;-61
2023/10/02 09:29:19;;;;;;;9.50;6.33;;;;;;;;;;5116445;28;20474;-61
2023/10/02 09:31:46;;;;;;;9.20;6.57;;;;;;;;;;5116764;28;20853;-61
2023/10/02 09:34:16;;;;;;;11.37;6.47;;;;;;;;;;5116425;28;20446;-61
2023/10/02 09:36:52;;;;;;;10.20;7.17;;;;;;;;;;5116716;28;20449;-61
2023/10/02 09:39:36;;;;;;;8.63;6.30;;;;;;;;;;5116584;28;20517;-61
2023/10/02 09:42:07;;;;;;;11.10;7.10;;;;;;;;;;5116547;28;20452;-61
2023/10/02 09:44:42;;;;;;;9.97;7.40;;;;;;;;;;5116620;28;20478;-62
2023/10/02 09:47:09;;;;;;;8.80;6.07;;;;;;;;;;5116550;28;20536;-62
2023/10/02 09:49:40;;;;;;;9.00;6.77;;;;;;;;;;5116724;28;20442;-62
2023/10/02 09:52:15;;;;;;;10.67;7.47;;;;;;;;;;5116181;28;20487;-62
2023/10/02 09:54:47;;;;;;;8.90;6.27;;;;;;;;;;5116273;28;20468;-62
2023/10/02 09:57:17;;;;;;;11.70;6.70;;;;;;;;;;5115558;28;20446;-62
2023/10/02 09:59:46;;;;;;;10.40;6.63;;;;;;;;;;5116204;28;20494;-62
2023/10/02 10:10:48;;;;;;;9.70;6.03;;;;;;;;;;5116818;28;20956;-62
2023/10/02 10:13:32;;;;;;;8.90;6.53;;;;;;;;;;5116073;28;20441;-62
2023/10/02 10:16:29;;;;;;;9.57;6.90;;;;;;;;;;5114118;28;20491;-61
2023/10/02 10:19:30;;;;;;;7.37;5.97;;;;;;;;;;5115445;28;20485;-62
2023/10/02 10:21:58;;;;;;;10.50;5.63;;;;;;;;;;5115849;28;20459;-62
2023/10/02 10:25:22;;;;;;;8.03;5.80;;;;;;;;;;5115968;28;21016;-62
2023/10/02 10:28:02;;;;;;;8.50;6.67;;;;;;;;;;5115393;28;20924;-62
2023/10/02 10:30:34;;;;;;;8.70;6.50;;;;;;;;;;5115588;28;20460;-62
2023/10/02 10:33:20;;;;;;;9.53;6.60;;;;;;;;;;5115285;28;20441;-61
2023/10/02 10:35:52;;;;;;;10.13;5.37;;;;;;;;;;5115238;28;20489;-62
2023/10/02 10:38:44;;;;;;;6.40;5.30;;;;;;;;;;5115521;28;20449;-62
2023/10/02 10:41:14;;;;;;;11.00;5.93;;;;;;;;;;5115444;28;20860;-62
2023/10/02 10:43:55;;;;;;;7.10;5.90;;;;;;;;;;5115304;28;20441;-62
2023/10/02 10:46:22;;;;;;;8.07;5.93;;;;;;;;;;5115501;28;21026;-62
2023/10/02 10:48:59;;;;;;;6.63;4.77;;;;;;;;;;5115410;28;20445;-62
2023/10/02 10:51:28;;;;;;;6.47;5.27;;;;;;;;;;5115249;28;20448;-61
2023/10/02 10:54:12;;;;;;;7.80;5.80;;;;;;;;;;5115137;28;20441;-62
2023/10/02 10:56:43;;;;;;;6.57;5.07;;;;;;;;;;5114913;28;20558;-62
2023/10/02 10:59:11;;;;;;;7.67;5.43;;;;;;;;;;5115137;28;20445;-62
2023/10/02 11:01:39;;;;;;;8.70;5.57;;;;;;;;;;5115108;28;20452;-62
2023/10/02 11:04:06;;;;;;;5.70;4.27;;;;;;;;;;5114919;28;20449;-62
2023/10/02 11:06:41;;;;;;;7.37;6.43;;;;;;;;;;5114752;28;20525;-62
2023/10/02 11:09:12;;;;;;;8.17;5.90;;;;;;;;;;5113627;28;20532;-62
2023/10/02 11:11:48;;;;;;;9.00;5.40;;;;;;;;;;5114936;28;20442;-62
2023/10/02 11:14:20;;;;;;;7.00;4.83;;;;;;;;;;5115082;28;20445;-62
2023/10/02 11:16:51;;;;;;;7.70;5.50;;;;;;;;;;5114623;28;20543;-62
2023/10/02 11:19:25;;;;;;;8.67;5.83;;;;;;;;;;5114600;28;20471;-62
2023/10/02 11:22:16;;;;;;;6.80;5.50;;;;;;;;;;5114866;28;20445;-62
2023/10/02 11:24:43;;;;;;;7.93;6.17;;;;;;;;;;5114636;28;20873;-62
2023/10/02 11:27:14;;;;;;;7.27;5.97;;;;;;;;;;5114467;28;20441;-62
2023/10/02 11:29:41;;;;;;;8.20;6.43;;;;;;;;;;5114157;28;20472;-62
2023/10/02 11:32:22;;;;;;;8.43;5.90;;;;;;;;;;5114290;28;20498;-62
2023/10/02 11:34:49;;;;;;;9.67;6.40;;;;;;;;;;5114277;28;20484;-62
2023/10/02 11:37:18;;;;;;;9.67;6.20;;;;;;;;;;5114390;28;20530;-62
2023/10/02 11:39:50;;;;;;;8.90;6.07;;;;;;;;;;5114206;28;20445;-61
2023/10/02 11:42:18;;;;;;;7.50;5.77;;;;;;;;;;5111398;28;20536;-61
2023/10/02 11:44:45;;;;;;;9.13;6.13;;;;;;;;;;5093566;28;20949;-62
2023/10/02 11:47:12;;;;;;;9.27;5.33;;;;;;;;;;5093879;28;20449;-61
2023/10/02 11:49:40;;;;;;;9.73;6.23;;;;;;;;;;5093836;28;20447;-62
2023/10/02 11:52:07;;;;;;;9.27;6.27;;;;;;;;;;5093742;28;20442;-60
2023/10/02 11:54:36;;;;;;;9.37;6.13;;;;;;;;;;5093593;28;20891;-62
2023/10/02 11:57:08;;;;;;;12.27;6.67;;;;;;;;;;5093313;28;20458;-62
2023/10/02 11:59:35;;;;;;;11.87;6.90;;;;;;;;;;5093673;28;20451;-62
2023/10/02 12:02:03;;;;;;;9.53;7.20;;;;;;;;;;5093511;28;20533;-61
2023/10/02 12:04:30;;;;;;;6.70;6.00;;;;;;;;;;5093263;28;20925;-62
2023/10/02 12:06:58;;;;;;;7.03;5.77;;;;;;;;;;5093300;28;20541;-61
2023/10/02 12:09:27;;;;;;;8.33;6.00;;;;;;;;;;5093260;28;20496;-63
2023/10/02 12:11:58;;;;;;;8.80;6.63;;;;;;;;;;5093424;28;20443;-64
2023/10/02 12:14:25;;;;;;;7.30;5.57;;;;;;;;;;5093411;28;20465;-62
2023/10/02 12:16:52;;;;;;;9.10;5.80;;;;;;;;;;5093192;28;20572;-63
2023/10/02 12:19:19;;;;;;;8.00;5.90;;;;;;;;;;5092953;28;20529;-63
2023/10/02 12:21:47;;;;;;;10.77;6.93;;;;;;;;;;5092880;28;20538;-64
2023/10/02 12:24:14;;;;;;;8.47;5.90;;;;;;;;;;5092581;28;20446;-64
2023/10/02 12:26:41;;;;;;;13.87;6.60;;;;;;;;;;5093222;28;20477;-63
2023/10/02 12:29:11;;;;;;;7.80;5.20;;;;;;;;;;5093020;28;20470;-64
2023/10/02 12:31:40;;;;;;;8.10;5.60;;;;;;;;;;5093273;28;20488;-64
2023/10/02 12:34:07;;;;;;;8.87;6.17;;;;;;;;;;5093041;28;20446;-64
2023/10/02 12:36:34;;;;;;;8.27;6.37;;;;;;;;;;5092841;28;20573;-63
2023/10/02 12:39:03;;;;;;;9.37;6.07;;;;;;;;;;5093195;28;20511;-63
2023/10/02 12:41:32;;;;;;;7.40;4.90;;;;;;;;;;5093019;28;20533;-64
2023/10/02 12:43:59;;;;;;;7.20;5.10;;;;;;;;;;5092853;28;20449;-64
2023/10/02 12:46:28;;;;;;;6.23;4.60;;;;;;;;;;5092844;28;20878;-64
2023/10/02 12:48:57;;;;;;;6.97;5.27;;;;;;;;;;5092790;28;21002;-64
2023/10/02 12:51:24;;;;;;;8.50;5.60;;;;;;;;;;5093059;28;20561;-63
2023/10/02 12:53:51;;;;;;;7.90;5.20;;;;;;;;;;5092896;28;20875;-64
2023/10/02 12:56:20;;;;;;;6.87;5.40;;;;;;;;;;5092823;28;20572;-64
2023/10/02 12:58:48;;;;;;;7.43;6.10;;;;;;;;;;5092888;28;20499;-64
2023/10/02 13:01:16;;;;;;;9.40;5.20;;;;;;;;;;5092706;28;20438;-64
2023/10/02 13:03:44;;;;;;;8.37;5.07;;;;;;;;;;5092671;28;20499;-64
2023/10/02 13:06:12;;;;;;;7.80;5.60;;;;;;;;;;5093006;28;20542;-64
2023/10/02 13:08:41;;;;;;;7.70;6.23;;;;;;;;;;5092839;28;20449;-64
2023/10/02 13:11:10;;;;;;;8.67;6.17;;;;;;;;;;5092718;28;20457;-63
2023/10/02 13:13:37;;;;;;;7.10;5.57;;;;;;;;;;5092655;28;20446;-64
2023/10/02 13:16:04;;;;;;;8.70;5.33;;;;;;;;;;5092522;28;20572;-64
2023/10/02 13:18:32;;;;;;;6.33;5.17;;;;;;;;;;5092676;28;20443;-64
2023/10/02 13:21:01;;;;;;;9.60;6.13;;;;;;;;;;5092750;28;20435;-64
2023/10/02 13:23:28;;;;;;;7.93;5.87;;;;;;;;;;5092675;28;20450;-63
2023/10/02 13:25:55;;;;;;;8.07;6.10;;;;;;;;;;5092641;28;20874;-63
2023/10/02 13:28:22;;;;;;;9.80;5.87;;;;;;;;;;5092671;28;20470;-64
2023/10/02 13:30:49;;;;;;;6.27;5.63;;;;;;;;;;5092482;28;20866;-64
2023/10/02 13:33:16;;;;;;;10.00;5.57;;;;;;;;;;5095161;28;20537;-63
2023/10/02 13:35:44;;;;;;;9.40;6.07;;;;;;;;;;5095955;28;20466;-64
2023/10/02 13:38:13;;;;;;;9.13;6.23;;;;;;;;;;5096313;28;20445;-64
2023/10/02 13:40:41;;;;;;;9.20;6.03;;;;;;;;;;5096104;28;20496;-64
2023/10/02 13:43:08;;;;;;;7.73;5.17;;;;;;;;;;5095950;28;20487;-64
2023/10/02 13:45:35;;;;;;;10.40;6.83;;;;;;;;;;5096136;28;20438;-63
2023/10/02 13:48:04;;;;;;;8.00;6.03;;;;;;;;;;5096124;28;20461;-63
2023/10/02 13:50:35;;;;;;;7.10;5.30;;;;;;;;;;5096106;28;20443;-63
2023/10/02 13:53:02;;;;;;;7.40;5.67;;;;;;;;;;5096066;28;20856;-63
2023/10/02 13:55:30;;;;;;;7.40;5.80;;;;;;;;;;5096229;28;20469;-64
2023/10/02 13:57:57;;;;;;;7.33;5.40;;;;;;;;;;5095749;28;20983;-64
2023/10/02 14:00:26;;;;;;;5.97;5.13;;;;;;;;;;5095868;28;20793;-64
2023/10/02 14:02:53;;;;;;;9.50;5.40;;;;;;;;;;5095658;28;21003;-63
2023/10/02 14:05:20;;;;;;;9.07;5.83;;;;;;;;;;5095843;28;20786;-63
2023/10/02 14:07:48;;;;;;;7.50;5.77;;;;;;;;;;5095722;28;20849;-64
2023/10/02 14:10:16;;;;;;;7.50;5.70;;;;;;;;;;5095596;28;20945;-64
2023/10/02 14:12:45;;;;;;;9.00;6.63;;;;;;;;;;5095453;28;20519;-64
2023/10/02 14:15:16;;;;;;;10.93;6.10;;;;;;;;;;5095748;28;20493;-63
2023/10/02 14:17:43;;;;;;;9.30;5.80;;;;;;;;;;5095484;28;20489;-64
2023/10/02 14:20:14;;;;;;;7.90;5.90;;;;;;;;;;5095418;28;20533;-64
2023/10/02 14:22:42;;;;;;;8.10;5.73;;;;;;;;;;5095215;28;20447;-64
2023/10/02 14:25:09;;;;;;;11.03;6.30;;;;;;;;;;5095159;28;20449;-64
2023/10/02 14:27:36;;;;;;;6.70;5.03;;;;;;;;;;5095117;28;20482;-63
2023/10/02 14:30:12;;;;;;;6.83;5.87;;;;;;;;;;5095023;28;20545;-63
2023/10/02 14:32:39;;;;;;;6.60;5.30;;;;;;;;;;5095222;28;20466;-64
2023/10/02 14:35:07;;;;;;;8.40;5.53;;;;;;;;;;5094958;28;20443;-63
2023/10/02 14:37:33;;;;;;;9.77;5.77;;;;;;;;;;5094793;28;20482;-64
2023/10/02 14:40:01;;;;;;;8.13;6.20;;;;;;;;;;5095079;28;20533;-64
2023/10/02 14:42:28;;;;;;;7.27;5.47;;;;;;;;;;5095068;28;20529;-63
2023/10/02 14:44:55;;;;;;;6.60;5.30;;;;;;;;;;5094718;28;20453;-64
2023/10/02 14:47:23;;;;;;;9.60;5.43;;;;;;;;;;5094900;28;20454;-64
2023/10/02 14:49:50;;;;;;;8.87;5.70;;;;;;;;;;5094693;28;20972;-64
2023/10/02 14:52:17;;;;;;;10.50;6.03;;;;;;;;;;5094901;28;20537;-64
2023/10/02 14:54:44;;;;;;;5.63;4.47;;;;;;;;;;5094753;28;20442;-64
2023/10/02 14:57:11;;;;;;;8.53;5.80;;;;;;;;;;5094678;28;20478;-64
2023/10/02 14:59:40;;;;;;;6.70;5.23;;;;;;;;;;5094695;28;20533;-64
2023/10/02 15:02:07;;;;;;;8.47;4.60;;;;;;;;;;5094666;28;20516;-64
2023/10/02 15:04:37;;;;;;;9.93;5.07;;;;;;;;;;5094359;28;20949;-64
2023/10/02 15:07:05;;;;;;;6.50;5.30;;;;;;;;;;5094879;28;20443;-63
2023/10/02 15:09:32;;;;;;;7.67;5.53;;;;;;;;;;5094530;28;20805;-64
2023/10/02 15:11:59;;;;;;;6.20;5.50;;;;;;;;;;5094717;28;20525;-64
2023/10/02 15:14:27;;;;;;;9.03;5.13;;;;;;;;;;5094325;28;20937;-63
2023/10/02 15:16:56;;;;;;;9.70;5.20;;;;;;;;;;5094235;28;20981;-64
2023/10/02 15:19:23;;;;;;;7.47;5.03;;;;;;;;;;5094540;28;20447;-64
2023/10/02 15:21:51;;;;;;;7.73;5.03;;;;;;;;;;5094381;28;20525;-63
2023/10/02 15:24:19;;;;;;;7.00;5.20;;;;;;;;;;5094229;28;20438;-64
2023/10/02 15:26:46;;;;;;;9.37;5.40;;;;;;;;;;5094126;28;20546;-64